DAUE

El Golea Airport

Algeria
METAR DAUE 162200Z 35004KT CAVOK 04/M04 Q1019
Observed Flight Rules
Jan-16 @ 22:00 UTC (57 minutes ago) Visual Flight Rules
Wind Visibility Clouds
350° at 4 knots 10,000+ meters
  • Clear skies
Temperatures Readings
Current 4°C / 39°F
Dewpoint -4°C / 25°F
Humidity 56%
Altimeter 30.09" Hg
Pressure 1018.92 hPa
Elevation 397
METAR DAUE 162200Z 35004KT CAVOK 04/M04 Q1019
Observed Flight Rules
Jan-16 @ 22:00 UTC
(57 minutes ago)
VFR
Wind Visibility
350° at 4 knots 10,000+ meters
Clouds
  • Clear skies
Temperature Dewpoint
4°C / 39°F -4°C / 25°F
Humidity Altimeter Pressure
56% 30.09" Hg 1018.92 hPa